sensor_id;sensor_type;location;lat;lon;timestamp;P1;durP1;ratioP1;P2;durP2;ratioP2
9940;SDS011;5009;50.656;7.188;2023-04-24T04:01:20;4.57;;;4.13;;
9940;SDS011;5009;50.656;7.188;2023-04-24T04:03:46;7.17;;;4.70;;
9940;SDS011;5009;50.656;7.188;2023-04-24T04:06:12;4.80;;;4.40;;
9940;SDS011;5009;50.656;7.188;2023-04-24T04:08:38;5.97;;;4.90;;
9940;SDS011;5009;50.656;7.188;2023-04-24T04:11:03;5.30;;;4.80;;
9940;SDS011;5009;50.656;7.188;2023-04-24T04:13:29;4.50;;;4.17;;
9940;SDS011;5009;50.656;7.188;2023-04-24T04:15:54;6.80;;;4.70;;
9940;SDS011;5009;50.656;7.188;2023-04-24T04:18:20;4.50;;;3.97;;
9940;SDS011;5009;50.656;7.188;2023-04-24T04:20:46;4.50;;;4.10;;
9940;SDS011;5009;50.656;7.188;2023-04-24T04:23:11;4.93;;;4.53;;
9940;SDS011;5009;50.656;7.188;2023-04-24T04:25:37;5.43;;;4.90;;
9940;SDS011;5009;50.656;7.188;2023-04-24T04:28:02;4.93;;;4.53;;
9940;SDS011;5009;50.656;7.188;2023-04-24T04:30:28;4.97;;;4.57;;
9940;SDS011;5009;50.656;7.188;2023-04-24T04:32:57;5.53;;;4.70;;
9940;SDS011;5009;50.656;7.188;2023-04-24T04:35:22;4.77;;;4.27;;
9940;SDS011;5009;50.656;7.188;2023-04-24T04:37:48;4.83;;;4.43;;
9940;SDS011;5009;50.656;7.188;2023-04-24T04:40:14;4.73;;;4.33;;
9940;SDS011;5009;50.656;7.188;2023-04-24T04:42:39;5.20;;;4.70;;
9940;SDS011;5009;50.656;7.188;2023-04-24T04:45:08;4.53;;;4.20;;
9940;SDS011;5009;50.656;7.188;2023-04-24T04:47:34;4.70;;;4.30;;
9940;SDS011;5009;50.656;7.188;2023-04-24T04:49:59;4.67;;;4.27;;
9940;SDS011;5009;50.656;7.188;2023-04-24T04:52:25;5.00;;;4.10;;
9940;SDS011;5009;50.656;7.188;2023-04-24T04:54:51;4.67;;;4.27;;
9940;SDS011;5009;50.656;7.188;2023-04-24T04:57:17;5.03;;;4.47;;
9940;SDS011;5009;50.656;7.188;2023-04-24T04:59:42;4.90;;;4.00;;
9940;SDS011;5009;50.656;7.188;2023-04-24T05:02:08;4.60;;;4.20;;
9940;SDS011;5009;50.656;7.188;2023-04-24T05:04:34;4.50;;;4.10;;
9940;SDS011;5009;50.656;7.188;2023-04-24T05:06:59;4.27;;;3.90;;
9940;SDS011;5009;50.656;7.188;2023-04-24T05:09:25;4.33;;;3.83;;
9940;SDS011;5009;50.656;7.188;2023-04-24T05:11:52;4.33;;;3.93;;
9940;SDS011;5009;50.656;7.188;2023-04-24T05:14:18;4.40;;;3.93;;
9940;SDS011;5009;50.656;7.188;2023-04-24T05:16:44;4.60;;;4.20;;
9940;SDS011;5009;50.656;7.188;2023-04-24T05:19:09;4.63;;;4.23;;
9940;SDS011;5009;50.656;7.188;2023-04-24T05:21:36;4.93;;;4.13;;
9940;SDS011;5009;50.656;7.188;2023-04-24T05:24:02;4.63;;;4.10;;
9940;SDS011;5009;50.656;7.188;2023-04-24T05:26:28;4.77;;;4.30;;
9940;SDS011;5009;50.656;7.188;2023-04-24T05:28:54;5.23;;;4.53;;
9940;SDS011;5009;50.656;7.188;2023-04-24T05:31:19;4.70;;;4.23;;
9940;SDS011;5009;50.656;7.188;2023-04-24T05:33:45;5.10;;;4.70;;
9940;SDS011;5009;50.656;7.188;2023-04-24T05:36:10;5.33;;;4.37;;
9940;SDS011;5009;50.656;7.188;2023-04-24T05:38:36;4.87;;;4.30;;
9940;SDS011;5009;50.656;7.188;2023-04-24T05:41:01;5.83;;;4.80;;
9940;SDS011;5009;50.656;7.188;2023-04-24T05:43:27;5.17;;;4.70;;
9940;SDS011;5009;50.656;7.188;2023-04-24T05:45:52;7.37;;;4.73;;
9940;SDS011;5009;50.656;7.188;2023-04-24T05:48:18;6.77;;;5.00;;
9940;SDS011;5009;50.656;7.188;2023-04-24T05:50:44;4.80;;;4.40;;
9940;SDS011;5009;50.656;7.188;2023-04-24T05:53:10;4.73;;;4.33;;
9940;SDS011;5009;50.656;7.188;2023-04-24T05:55:36;8.67;;;5.93;;
9940;SDS011;5009;50.656;7.188;2023-04-24T05:58:01;5.30;;;4.80;;
9940;SDS011;5009;50.656;7.188;2023-04-24T06:00:27;5.50;;;5.00;;
9940;SDS011;5009;50.656;7.188;2023-04-24T06:02:53;5.63;;;4.67;;
9940;SDS011;5009;50.656;7.188;2023-04-24T06:05:19;5.97;;;4.87;;
9940;SDS011;5009;50.656;7.188;2023-04-24T06:07:45;5.10;;;4.60;;
9940;SDS011;5009;50.656;7.188;2023-04-24T06:10:10;5.50;;;5.00;;
9940;SDS011;5009;50.656;7.188;2023-04-24T06:12:36;5.77;;;5.23;;
9940;SDS011;5009;50.656;7.188;2023-04-24T06:15:02;5.13;;;4.70;;
9940;SDS011;5009;50.656;7.188;2023-04-24T06:17:28;6.10;;;5.43;;
9940;SDS011;5009;50.656;7.188;2023-04-24T06:19:54;7.70;;;5.80;;
9940;SDS011;5009;50.656;7.188;2023-04-24T06:22:19;6.90;;;5.20;;
9940;SDS011;5009;50.656;7.188;2023-04-24T06:24:45;5.90;;;5.40;;
9940;SDS011;5009;50.656;7.188;2023-04-24T06:27:12;6.73;;;5.23;;
9940;SDS011;5009;50.656;7.188;2023-04-24T06:29:37;6.20;;;5.60;;
9940;SDS011;5009;50.656;7.188;2023-04-24T06:32:03;5.30;;;4.80;;
9940;SDS011;5009;50.656;7.188;2023-04-24T06:34:28;6.37;;;5.77;;
9940;SDS011;5009;50.656;7.188;2023-04-24T06:36:55;5.67;;;5.17;;
9940;SDS011;5009;50.656;7.188;2023-04-24T06:39:21;7.40;;;5.20;;
9940;SDS011;5009;50.656;7.188;2023-04-24T06:41:47;5.80;;;5.27;;
9940;SDS011;5009;50.656;7.188;2023-04-24T06:44:12;5.30;;;4.80;;
9940;SDS011;5009;50.656;7.188;2023-04-24T06:46:39;5.67;;;5.17;;
9940;SDS011;5009;50.656;7.188;2023-04-24T06:49:06;6.47;;;5.30;;
9940;SDS011;5009;50.656;7.188;2023-04-24T06:51:31;5.90;;;5.30;;
9940;SDS011;5009;50.656;7.188;2023-04-24T06:53:58;8.43;;;5.40;;
9940;SDS011;5009;50.656;7.188;2023-04-24T06:56:23;6.73;;;5.60;;
9940;SDS011;5009;50.656;7.188;2023-04-24T06:58:50;5.83;;;5.33;;
9940;SDS011;5009;50.656;7.188;2023-04-24T07:01:16;5.83;;;5.33;;
9940;SDS011;5009;50.656;7.188;2023-04-24T07:03:41;5.30;;;4.80;;
9940;SDS011;5009;50.656;7.188;2023-04-24T07:06:07;5.10;;;4.60;;
9940;SDS011;5009;50.656;7.188;2023-04-24T07:08:33;5.10;;;4.17;;
9940;SDS011;5009;50.656;7.188;2023-04-24T07:10:59;5.13;;;4.70;;
9940;SDS011;5009;50.656;7.188;2023-04-24T07:13:24;4.93;;;4.40;;
9940;SDS011;5009;50.656;7.188;2023-04-24T07:15:51;5.07;;;4.67;;
9940;SDS011;5009;50.656;7.188;2023-04-24T07:18:18;5.20;;;4.73;;
9940;SDS011;5009;50.656;7.188;2023-04-24T07:20:45;4.97;;;4.57;;
9940;SDS011;5009;50.656;7.188;2023-04-24T07:23:10;4.90;;;4.50;;
9940;SDS011;5009;50.656;7.188;2023-04-24T07:25:36;5.53;;;4.40;;
9940;SDS011;5009;50.656;7.188;2023-04-24T07:28:01;4.40;;;4.10;;
9940;SDS011;5009;50.656;7.188;2023-04-24T07:30:27;4.50;;;4.17;;
9940;SDS011;5009;50.656;7.188;2023-04-24T07:32:57;4.70;;;4.30;;
9940;SDS011;5009;50.656;7.188;2023-04-24T07:35:23;4.50;;;4.10;;
9940;SDS011;5009;50.656;7.188;2023-04-24T07:37:50;4.20;;;3.80;;
9940;SDS011;5009;50.656;7.188;2023-04-24T07:40:19;3.33;;;3.03;;
9940;SDS011;5009;50.656;7.188;2023-04-24T07:42:45;4.03;;;3.60;;
9940;SDS011;5009;50.656;7.188;2023-04-24T07:45:13;3.50;;;3.30;;
9940;SDS011;5009;50.656;7.188;2023-04-24T07:47:39;3.70;;;3.10;;
9940;SDS011;5009;50.656;7.188;2023-04-24T07:50:08;3.83;;;3.13;;
9940;SDS011;5009;50.656;7.188;2023-04-24T07:52:34;2.90;;;2.70;;
9940;SDS011;5009;50.656;7.188;2023-04-24T07:55:00;3.30;;;3.10;;
9940;SDS011;5009;50.656;7.188;2023-04-24T07:57:27;2.60;;;2.40;;
9940;SDS011;5009;50.656;7.188;2023-04-24T07:59:53;2.53;;;2.27;;
9940;SDS011;5009;50.656;7.188;2023-04-24T08:02:18;2.70;;;2.50;;
9940;SDS011;5009;50.656;7.188;2023-04-24T08:04:44;2.67;;;2.47;;
9940;SDS011;5009;50.656;7.188;2023-04-24T08:07:10;2.70;;;2.50;;
9940;SDS011;5009;50.656;7.188;2023-04-24T08:09:37;2.63;;;2.43;;
9940;SDS011;5009;50.656;7.188;2023-04-24T08:12:03;2.70;;;2.33;;
9940;SDS011;5009;50.656;7.188;2023-04-24T08:14:29;2.43;;;1.93;;
9940;SDS011;5009;50.656;7.188;2023-04-24T08:16:54;2.40;;;2.30;;
9940;SDS011;5009;50.656;7.188;2023-04-24T08:19:25;2.40;;;2.30;;
9940;SDS011;5009;50.656;7.188;2023-04-24T08:21:50;2.40;;;2.10;;
9940;SDS011;5009;50.656;7.188;2023-04-24T08:24:16;4.10;;;2.17;;
9940;SDS011;5009;50.656;7.188;2023-04-24T08:26:41;3.23;;;2.07;;
9940;SDS011;5009;50.656;7.188;2023-04-24T08:29:07;2.03;;;1.93;;
9940;SDS011;5009;50.656;7.188;2023-04-24T08:31:33;1.80;;;1.70;;
9940;SDS011;5009;50.656;7.188;2023-04-24T08:33:58;1.63;;;1.53;;
9940;SDS011;5009;50.656;7.188;2023-04-24T08:36:25;1.97;;;1.80;;
9940;SDS011;5009;50.656;7.188;2023-04-24T08:38:50;2.47;;;1.67;;
9940;SDS011;5009;50.656;7.188;2023-04-24T08:41:16;1.60;;;1.50;;
9940;SDS011;5009;50.656;7.188;2023-04-24T08:43:45;1.90;;;1.80;;
9940;SDS011;5009;50.656;7.188;2023-04-24T08:46:11;1.90;;;1.80;;
9940;SDS011;5009;50.656;7.188;2023-04-24T08:48:38;2.07;;;1.57;;
9940;SDS011;5009;50.656;7.188;2023-04-24T08:51:05;1.87;;;1.70;;
9940;SDS011;5009;50.656;7.188;2023-04-24T08:53:32;1.40;;;1.30;;
9940;SDS011;5009;50.656;7.188;2023-04-24T08:55:58;1.30;;;1.30;;
9940;SDS011;5009;50.656;7.188;2023-04-24T08:58:26;1.60;;;1.47;;
9940;SDS011;5009;50.656;7.188;2023-04-24T09:00:56;1.63;;;1.37;;
9940;SDS011;5009;50.656;7.188;2023-04-24T09:03:22;1.63;;;1.53;;
9940;SDS011;5009;50.656;7.188;2023-04-24T09:05:48;1.83;;;1.73;;
9940;SDS011;5009;50.656;7.188;2023-04-24T09:08:16;2.00;;;1.57;;
9940;SDS011;5009;50.656;7.188;2023-04-24T09:10:43;1.70;;;1.60;;
9940;SDS011;5009;50.656;7.188;2023-04-24T09:13:08;1.60;;;1.50;;
9940;SDS011;5009;50.656;7.188;2023-04-24T09:15:35;1.53;;;1.53;;
9940;SDS011;5009;50.656;7.188;2023-04-24T09:18:02;1.90;;;1.80;;
9940;SDS011;5009;50.656;7.188;2023-04-24T09:20:27;2.40;;;1.97;;
9940;SDS011;5009;50.656;7.188;2023-04-24T09:22:53;1.63;;;1.50;;
9940;SDS011;5009;50.656;7.188;2023-04-24T09:25:23;1.83;;;1.73;;
9940;SDS011;5009;50.656;7.188;2023-04-24T09:27:59;2.70;;;1.60;;
9940;SDS011;5009;50.656;7.188;2023-04-24T09:30:28;2.13;;;1.93;;
9940;SDS011;5009;50.656;7.188;2023-04-24T09:33:10;1.90;;;1.80;;
9940;SDS011;5009;50.656;7.188;2023-04-24T09:35:41;2.30;;;2.10;;
9940;SDS011;5009;50.656;7.188;2023-04-24T09:38:08;2.37;;;2.00;;
9940;SDS011;5009;50.656;7.188;2023-04-24T09:40:34;2.13;;;2.03;;
9940;SDS011;5009;50.656;7.188;2023-04-24T09:42:59;2.07;;;1.97;;
9940;SDS011;5009;50.656;7.188;2023-04-24T09:45:27;2.00;;;1.90;;
9940;SDS011;5009;50.656;7.188;2023-04-24T09:47:59;2.50;;;2.30;;
9940;SDS011;5009;50.656;7.188;2023-04-24T09:50:25;2.07;;;1.97;;
9940;SDS011;5009;50.656;7.188;2023-04-24T09:53:03;1.90;;;1.80;;
9940;SDS011;5009;50.656;7.188;2023-04-24T09:55:33;1.90;;;1.80;;
9940;SDS011;5009;50.656;7.188;2023-04-24T09:58:04;1.80;;;1.70;;
9940;SDS011;5009;50.656;7.188;2023-04-24T10:00:31;1.90;;;1.80;;
9940;SDS011;5009;50.656;7.188;2023-04-24T10:02:58;1.93;;;1.73;;
9940;SDS011;5009;50.656;7.188;2023-04-24T10:08:00;2.00;;;1.50;;
9940;SDS011;5009;50.656;7.188;2023-04-24T10:10:25;1.90;;;1.80;;
9940;SDS011;5009;50.656;7.188;2023-04-24T10:12:51;2.10;;;1.90;;
9940;SDS011;5009;50.656;7.188;2023-04-24T10:15:18;1.90;;;1.80;;
9940;SDS011;5009;50.656;7.188;2023-04-24T10:17:46;2.30;;;2.10;;
9940;SDS011;5009;50.656;7.188;2023-04-24T10:20:19;2.53;;;2.33;;
9940;SDS011;5009;50.656;7.188;2023-04-24T10:22:47;3.00;;;2.37;;
9940;SDS011;5009;50.656;7.188;2023-04-24T10:25:16;2.80;;;2.60;;
9940;SDS011;5009;50.656;7.188;2023-04-24T10:27:42;3.93;;;2.60;;
9940;SDS011;5009;50.656;7.188;2023-04-24T10:30:10;4.50;;;2.73;;
9940;SDS011;5009;50.656;7.188;2023-04-24T10:32:37;3.10;;;2.87;;
9940;SDS011;5009;50.656;7.188;2023-04-24T10:35:03;2.97;;;2.63;;
9940;SDS011;5009;50.656;7.188;2023-04-24T10:37:29;3.03;;;2.83;;
9940;SDS011;5009;50.656;7.188;2023-04-24T10:40:01;3.13;;;2.80;;
9940;SDS011;5009;50.656;7.188;2023-04-24T10:42:28;3.67;;;3.00;;
9940;SDS011;5009;50.656;7.188;2023-04-24T10:44:53;3.23;;;2.93;;
9940;SDS011;5009;50.656;7.188;2023-04-24T10:47:20;3.30;;;2.80;;
9940;SDS011;5009;50.656;7.188;2023-04-24T10:49:45;4.67;;;3.00;;
9940;SDS011;5009;50.656;7.188;2023-04-24T10:52:15;3.53;;;2.90;;
9940;SDS011;5009;50.656;7.188;2023-04-24T10:54:42;4.17;;;2.90;;
9940;SDS011;5009;50.656;7.188;2023-04-24T10:57:29;3.77;;;3.30;;
9940;SDS011;5009;50.656;7.188;2023-04-24T11:02:45;6.53;;;3.27;;
9940;SDS011;5009;50.656;7.188;2023-04-24T11:05:17;4.93;;;3.67;;
9940;SDS011;5009;50.656;7.188;2023-04-24T11:10:40;5.07;;;3.53;;
9940;SDS011;5009;50.656;7.188;2023-04-24T11:13:08;4.53;;;3.57;;
9940;SDS011;5009;50.656;7.188;2023-04-24T11:15:34;6.40;;;4.13;;
9940;SDS011;5009;50.656;7.188;2023-04-24T11:18:00;4.47;;;3.80;;
9940;SDS011;5009;50.656;7.188;2023-04-24T11:20:25;6.17;;;4.43;;
9940;SDS011;5009;50.656;7.188;2023-04-24T11:22:52;5.33;;;3.93;;
9940;SDS011;5009;50.656;7.188;2023-04-24T11:25:23;4.30;;;3.90;;
9940;SDS011;5009;50.656;7.188;2023-04-24T11:27:49;6.10;;;4.10;;
9940;SDS011;5009;50.656;7.188;2023-04-24T11:30:19;4.90;;;3.53;;
9940;SDS011;5009;50.656;7.188;2023-04-24T11:32:48;4.10;;;3.70;;
9940;SDS011;5009;50.656;7.188;2023-04-24T11:37:46;4.63;;;3.77;;
9940;SDS011;5009;50.656;7.188;2023-04-24T11:40:16;4.17;;;3.77;;
9940;SDS011;5009;50.656;7.188;2023-04-24T11:42:46;5.90;;;4.33;;
9940;SDS011;5009;50.656;7.188;2023-04-24T11:45:13;6.97;;;4.23;;
9940;SDS011;5009;50.656;7.188;2023-04-24T11:47:39;6.90;;;4.50;;
9940;SDS011;5009;50.656;7.188;2023-04-24T11:50:07;4.57;;;3.80;;
9940;SDS011;5009;50.656;7.188;2023-04-24T11:52:37;6.37;;;4.43;;
9940;SDS011;5009;50.656;7.188;2023-04-24T11:57:39;7.23;;;4.10;;
9940;SDS011;5009;50.656;7.188;2023-04-24T12:00:14;5.40;;;3.93;;
9940;SDS011;5009;50.656;7.188;2023-04-24T12:02:41;4.73;;;3.77;;
9940;SDS011;5009;50.656;7.188;2023-04-24T12:05:07;3.83;;;3.50;;
9940;SDS011;5009;50.656;7.188;2023-04-24T12:07:39;4.33;;;3.87;;
9940;SDS011;5009;50.656;7.188;2023-04-24T12:10:08;4.90;;;4.00;;
9940;SDS011;5009;50.656;7.188;2023-04-24T12:12:34;6.07;;;3.43;;
9940;SDS011;5009;50.656;7.188;2023-04-24T12:15:00;8.20;;;4.57;;
9940;SDS011;5009;50.656;7.188;2023-04-24T12:17:32;6.93;;;4.57;;
9940;SDS011;5009;50.656;7.188;2023-04-24T12:22:45;5.10;;;4.60;;
9940;SDS011;5009;50.656;7.188;2023-04-24T12:25:11;7.53;;;4.70;;
9940;SDS011;5009;50.656;7.188;2023-04-24T12:27:38;5.50;;;4.30;;
9940;SDS011;5009;50.656;7.188;2023-04-24T12:30:04;4.60;;;3.80;;
9940;SDS011;5009;50.656;7.188;2023-04-24T12:32:31;4.70;;;4.30;;
9940;SDS011;5009;50.656;7.188;2023-04-24T12:34:57;5.40;;;4.60;;
9940;SDS011;5009;50.656;7.188;2023-04-24T12:37:23;5.37;;;4.57;;
9940;SDS011;5009;50.656;7.188;2023-04-24T12:40:06;6.80;;;4.97;;
9940;SDS011;5009;50.656;7.188;2023-04-24T12:42:34;6.60;;;4.97;;
9940;SDS011;5009;50.656;7.188;2023-04-24T12:45:09;6.13;;;5.07;;
9940;SDS011;5009;50.656;7.188;2023-04-24T12:47:37;6.83;;;4.83;;
9940;SDS011;5009;50.656;7.188;2023-04-24T12:50:03;5.80;;;4.90;;
9940;SDS011;5009;50.656;7.188;2023-04-24T12:52:29;7.20;;;5.53;;
9940;SDS011;5009;50.656;7.188;2023-04-24T12:54:56;5.73;;;4.97;;
9940;SDS011;5009;50.656;7.188;2023-04-24T12:57:23;6.90;;;5.50;;
9940;SDS011;5009;50.656;7.188;2023-04-24T12:59:50;6.67;;;6.00;;
9940;SDS011;5009;50.656;7.188;2023-04-24T13:02:17;10.27;;;5.93;;
9940;SDS011;5009;50.656;7.188;2023-04-24T13:04:46;5.70;;;5.20;;
9940;SDS011;5009;50.656;7.188;2023-04-24T13:07:12;6.63;;;5.13;;
9940;SDS011;5009;50.656;7.188;2023-04-24T13:09:39;6.57;;;5.23;;
9940;SDS011;5009;50.656;7.188;2023-04-24T13:12:05;7.13;;;5.80;;
9940;SDS011;5009;50.656;7.188;2023-04-24T13:14:31;8.67;;;5.37;;
9940;SDS011;5009;50.656;7.188;2023-04-24T13:16:57;8.37;;;5.30;;
9940;SDS011;5009;50.656;7.188;2023-04-24T13:19:25;8.70;;;5.50;;
9940;SDS011;5009;50.656;7.188;2023-04-24T13:21:52;10.37;;;5.50;;
9940;SDS011;5009;50.656;7.188;2023-04-24T13:24:20;5.00;;;4.43;;
9940;SDS011;5009;50.656;7.188;2023-04-24T13:26:46;5.80;;;4.33;;
9940;SDS011;5009;50.656;7.188;2023-04-24T13:29:11;5.13;;;4.60;;
9940;SDS011;5009;50.656;7.188;2023-04-24T13:31:37;6.67;;;3.97;;
9940;SDS011;5009;50.656;7.188;2023-04-24T13:34:02;5.77;;;4.17;;
9940;SDS011;5009;50.656;7.188;2023-04-24T13:36:29;5.17;;;4.13;;
9940;SDS011;5009;50.656;7.188;2023-04-24T13:38:56;6.70;;;4.37;;
9940;SDS011;5009;50.656;7.188;2023-04-24T13:41:22;4.83;;;4.30;;
9940;SDS011;5009;50.656;7.188;2023-04-24T13:43:47;5.63;;;4.40;;
9940;SDS011;5009;50.656;7.188;2023-04-24T13:46:13;6.03;;;4.73;;
9940;SDS011;5009;50.656;7.188;2023-04-24T13:48:38;7.20;;;4.63;;
9940;SDS011;5009;50.656;7.188;2023-04-24T13:51:04;6.23;;;4.83;;
9940;SDS011;5009;50.656;7.188;2023-04-24T13:53:29;6.23;;;4.33;;
9940;SDS011;5009;50.656;7.188;2023-04-24T13:55:55;8.40;;;4.90;;
9940;SDS011;5009;50.656;7.188;2023-04-24T13:58:21;7.30;;;5.03;;
9940;SDS011;5009;50.656;7.188;2023-04-24T14:00:46;4.97;;;4.47;;
9940;SDS011;5009;50.656;7.188;2023-04-24T14:03:12;7.97;;;4.70;;
9940;SDS011;5009;50.656;7.188;2023-04-24T14:05:37;8.17;;;4.73;;
9940;SDS011;5009;50.656;7.188;2023-04-24T14:08:04;5.93;;;4.30;;
9940;SDS011;5009;50.656;7.188;2023-04-24T14:10:30;4.63;;;4.13;;
9940;SDS011;5009;50.656;7.188;2023-04-24T14:12:56;5.37;;;4.00;;
9940;SDS011;5009;50.656;7.188;2023-04-24T14:15:22;6.50;;;3.80;;
9940;SDS011;5009;50.656;7.188;2023-04-24T14:17:48;5.50;;;4.20;;
9940;SDS011;5009;50.656;7.188;2023-04-24T14:20:14;5.40;;;4.03;;
9940;SDS011;5009;50.656;7.188;2023-04-24T14:22:40;6.90;;;4.20;;
9940;SDS011;5009;50.656;7.188;2023-04-24T14:25:06;6.57;;;4.03;;
9940;SDS011;5009;50.656;7.188;2023-04-24T14:27:32;5.27;;;4.43;;
9940;SDS011;5009;50.656;7.188;2023-04-24T14:29:59;6.20;;;3.97;;
9940;SDS011;5009;50.656;7.188;2023-04-24T14:32:25;5.63;;;4.13;;
9940;SDS011;5009;50.656;7.188;2023-04-24T14:34:50;4.63;;;4.10;;
9940;SDS011;5009;50.656;7.188;2023-04-24T14:37:16;4.97;;;4.47;;
9940;SDS011;5009;50.656;7.188;2023-04-24T14:39:41;5.07;;;4.57;;
9940;SDS011;5009;50.656;7.188;2023-04-24T14:42:07;6.67;;;4.77;;
9940;SDS011;5009;50.656;7.188;2023-04-24T14:44:32;6.93;;;4.87;;
9940;SDS011;5009;50.656;7.188;2023-04-24T14:46:58;5.17;;;4.67;;
9940;SDS011;5009;50.656;7.188;2023-04-24T14:49:25;6.27;;;4.50;;
9940;SDS011;5009;50.656;7.188;2023-04-24T14:51:50;8.23;;;5.30;;
9940;SDS011;5009;50.656;7.188;2023-04-24T14:54:16;7.73;;;5.20;;
9940;SDS011;5009;50.656;7.188;2023-04-24T14:56:42;7.57;;;5.10;;
9940;SDS011;5009;50.656;7.188;2023-04-24T14:59:09;7.03;;;5.07;;
9940;SDS011;5009;50.656;7.188;2023-04-24T15:01:35;7.50;;;5.13;;
9940;SDS011;5009;50.656;7.188;2023-04-24T15:04:01;9.23;;;5.20;;
9940;SDS011;5009;50.656;7.188;2023-04-24T15:06:26;6.27;;;4.73;;
9940;SDS011;5009;50.656;7.188;2023-04-24T15:08:52;6.40;;;4.33;;
9940;SDS011;5009;50.656;7.188;2023-04-24T15:11:17;6.17;;;4.67;;
9940;SDS011;5009;50.656;7.188;2023-04-24T15:13:43;8.07;;;5.13;;
9940;SDS011;5009;50.656;7.188;2023-04-24T15:16:11;7.67;;;5.93;;
9940;SDS011;5009;50.656;7.188;2023-04-24T15:18:37;8.00;;;5.20;;
9940;SDS011;5009;50.656;7.188;2023-04-24T15:21:02;7.67;;;4.90;;
9940;SDS011;5009;50.656;7.188;2023-04-24T15:23:28;8.97;;;5.67;;
9940;SDS011;5009;50.656;7.188;2023-04-24T15:25:53;8.63;;;4.67;;
9940;SDS011;5009;50.656;7.188;2023-04-24T15:28:19;5.93;;;4.90;;
9940;SDS011;5009;50.656;7.188;2023-04-24T15:30:46;5.40;;;4.23;;
9940;SDS011;5009;50.656;7.188;2023-04-24T15:33:12;5.73;;;4.67;;
9940;SDS011;5009;50.656;7.188;2023-04-24T15:35:38;5.43;;;4.33;;
9940;SDS011;5009;50.656;7.188;2023-04-24T15:38:03;6.00;;;5.13;;
9940;SDS011;5009;50.656;7.188;2023-04-24T15:40:29;5.17;;;4.27;;
9940;SDS011;5009;50.656;7.188;2023-04-24T15:42:55;5.60;;;4.50;;
9940;SDS011;5009;50.656;7.188;2023-04-24T15:45:20;7.43;;;4.47;;
9940;SDS011;5009;50.656;7.188;2023-04-24T15:47:47;6.93;;;4.20;;
9940;SDS011;5009;50.656;7.188;2023-04-24T15:50:12;6.17;;;4.70;;
9940;SDS011;5009;50.656;7.188;2023-04-24T15:52:40;4.83;;;4.30;;
9940;SDS011;5009;50.656;7.188;2023-04-24T15:55:06;5.73;;;4.20;;
9940;SDS011;5009;50.656;7.188;2023-04-24T15:57:32;4.60;;;4.20;;
9940;SDS011;5009;50.656;7.188;2023-04-24T15:59:57;5.17;;;3.97;;
9940;SDS011;5009;50.656;7.188;2023-04-24T16:02:23;4.20;;;3.80;;
9940;SDS011;5009;50.656;7.188;2023-04-24T16:04:49;4.70;;;4.20;;
9940;SDS011;5009;50.656;7.188;2023-04-24T16:07:15;7.47;;;4.07;;
9940;SDS011;5009;50.656;7.188;2023-04-24T16:09:42;6.10;;;4.20;;
9940;SDS011;5009;50.656;7.188;2023-04-24T16:12:08;5.03;;;3.73;;
9940;SDS011;5009;50.656;7.188;2023-04-24T16:14:34;8.27;;;4.73;;
9940;SDS011;5009;50.656;7.188;2023-04-24T16:17:01;6.00;;;4.70;;
9940;SDS011;5009;50.656;7.188;2023-04-24T16:19:27;6.67;;;4.07;;
9940;SDS011;5009;50.656;7.188;2023-04-24T16:21:52;4.57;;;4.17;;
9940;SDS011;5009;50.656;7.188;2023-04-24T16:24:20;5.43;;;4.37;;
9940;SDS011;5009;50.656;7.188;2023-04-24T16:26:47;4.03;;;3.63;;
9940;SDS011;5009;50.656;7.188;2023-04-24T16:29:13;5.97;;;4.83;;
9940;SDS011;5009;50.656;7.188;2023-04-24T16:31:39;5.40;;;4.70;;
9940;SDS011;5009;50.656;7.188;2023-04-24T16:34:05;7.33;;;4.77;;
9940;SDS011;5009;50.656;7.188;2023-04-24T16:36:31;8.50;;;4.90;;
9940;SDS011;5009;50.656;7.188;2023-04-24T16:38:57;5.77;;;4.80;;
9940;SDS011;5009;50.656;7.188;2023-04-24T16:41:25;5.73;;;4.60;;
9940;SDS011;5009;50.656;7.188;2023-04-24T16:43:51;5.57;;;4.83;;
9940;SDS011;5009;50.656;7.188;2023-04-24T16:46:17;4.93;;;4.40;;
9940;SDS011;5009;50.656;7.188;2023-04-24T16:48:43;5.40;;;4.43;;
9940;SDS011;5009;50.656;7.188;2023-04-24T16:51:09;4.77;;;4.13;;
9940;SDS011;5009;50.656;7.188;2023-04-24T16:53:34;7.17;;;4.33;;
9940;SDS011;5009;50.656;7.188;2023-04-24T16:56:00;7.13;;;4.43;;
9940;SDS011;5009;50.656;7.188;2023-04-24T16:58:26;6.77;;;4.80;;
9940;SDS011;5009;50.656;7.188;2023-04-24T17:00:51;8.50;;;4.70;;
9940;SDS011;5009;50.656;7.188;2023-04-24T17:03:17;5.50;;;4.70;;
9940;SDS011;5009;50.656;7.188;2023-04-24T17:05:42;5.50;;;4.00;;
9940;SDS011;5009;50.656;7.188;2023-04-24T17:08:08;6.83;;;4.03;;
9940;SDS011;5009;50.656;7.188;2023-04-24T17:10:33;6.23;;;4.33;;
9940;SDS011;5009;50.656;7.188;2023-04-24T17:12:59;6.40;;;4.37;;
9940;SDS011;5009;50.656;7.188;2023-04-24T17:15:24;5.03;;;4.27;;
9940;SDS011;5009;50.656;7.188;2023-04-24T17:17:50;5.00;;;4.17;;
9940;SDS011;5009;50.656;7.188;2023-04-24T17:20:16;5.00;;;3.80;;
9940;SDS011;5009;50.656;7.188;2023-04-24T17:22:42;4.27;;;3.70;;
9940;SDS011;5009;50.656;7.188;2023-04-24T17:25:07;4.40;;;4.00;;
9940;SDS011;5009;50.656;7.188;2023-04-24T17:27:33;5.83;;;4.10;;
9940;SDS011;5009;50.656;7.188;2023-04-24T17:29:59;6.20;;;4.10;;
9940;SDS011;5009;50.656;7.188;2023-04-24T17:32:24;5.50;;;4.40;;
9940;SDS011;5009;50.656;7.188;2023-04-24T17:34:50;5.73;;;4.07;;
9940;SDS011;5009;50.656;7.188;2023-04-24T17:37:15;4.50;;;4.10;;
9940;SDS011;5009;50.656;7.188;2023-04-24T17:39:43;6.37;;;4.17;;
9940;SDS011;5009;50.656;7.188;2023-04-24T17:42:09;5.43;;;4.50;;
9940;SDS011;5009;50.656;7.188;2023-04-24T17:44:35;5.80;;;4.30;;
9940;SDS011;5009;50.656;7.188;2023-04-24T17:47:00;6.40;;;4.37;;
9940;SDS011;5009;50.656;7.188;2023-04-24T17:49:28;5.07;;;4.40;;
9940;SDS011;5009;50.656;7.188;2023-04-24T17:51:54;4.33;;;3.93;;
9940;SDS011;5009;50.656;7.188;2023-04-24T17:54:20;6.03;;;4.33;;
9940;SDS011;5009;50.656;7.188;2023-04-24T17:56:45;5.27;;;4.10;;
9940;SDS011;5009;50.656;7.188;2023-04-24T17:59:11;5.73;;;4.80;;
9940;SDS011;5009;50.656;7.188;2023-04-24T18:01:37;6.47;;;4.63;;
9940;SDS011;5009;50.656;7.188;2023-04-24T18:04:02;5.57;;;4.37;;
9940;SDS011;5009;50.656;7.188;2023-04-24T18:06:28;6.23;;;4.87;;
9940;SDS011;5009;50.656;7.188;2023-04-24T18:08:53;6.50;;;4.50;;
9940;SDS011;5009;50.656;7.188;2023-04-24T18:11:19;5.37;;;4.50;;
9940;SDS011;5009;50.656;7.188;2023-04-24T18:13:45;5.73;;;4.40;;
9940;SDS011;5009;50.656;7.188;2023-04-24T18:16:11;6.77;;;4.90;;
9940;SDS011;5009;50.656;7.188;2023-04-24T18:18:37;8.40;;;4.90;;
9940;SDS011;5009;50.656;7.188;2023-04-24T18:21:02;6.13;;;4.60;;
9940;SDS011;5009;50.656;7.188;2023-04-24T18:23:28;6.60;;;4.87;;
9940;SDS011;5009;50.656;7.188;2023-04-24T18:25:53;7.33;;;5.17;;
9940;SDS011;5009;50.656;7.188;2023-04-24T18:28:19;8.53;;;5.30;;
9940;SDS011;5009;50.656;7.188;2023-04-24T18:30:45;7.07;;;5.17;;
9940;SDS011;5009;50.656;7.188;2023-04-24T18:33:11;11.03;;;5.53;;
9940;SDS011;5009;50.656;7.188;2023-04-24T18:35:37;7.50;;;5.00;;
9940;SDS011;5009;50.656;7.188;2023-04-24T18:38:02;6.60;;;4.30;;
9940;SDS011;5009;50.656;7.188;2023-04-24T18:40:28;8.03;;;4.90;;
9940;SDS011;5009;50.656;7.188;2023-04-24T18:42:55;6.93;;;5.10;;
9940;SDS011;5009;50.656;7.188;2023-04-24T18:45:20;6.13;;;4.57;;
9940;SDS011;5009;50.656;7.188;2023-04-24T18:47:46;5.47;;;4.97;;
9940;SDS011;5009;50.656;7.188;2023-04-24T18:50:11;6.67;;;4.90;;
9940;SDS011;5009;50.656;7.188;2023-04-24T18:52:38;7.07;;;5.27;;
9940;SDS011;5009;50.656;7.188;2023-04-24T18:55:04;7.07;;;4.97;;
9940;SDS011;5009;50.656;7.188;2023-04-24T18:57:31;6.90;;;5.20;;
9940;SDS011;5009;50.656;7.188;2023-04-24T18:59:57;8.07;;;5.23;;
9940;SDS011;5009;50.656;7.188;2023-04-24T19:02:22;7.50;;;4.50;;
9940;SDS011;5009;50.656;7.188;2023-04-24T19:04:48;7.13;;;5.00;;
9940;SDS011;5009;50.656;7.188;2023-04-24T19:07:14;7.73;;;4.97;;
9940;SDS011;5009;50.656;7.188;2023-04-24T19:09:40;7.33;;;5.17;;
9940;SDS011;5009;50.656;7.188;2023-04-24T19:12:05;6.73;;;5.77;;
9940;SDS011;5009;50.656;7.188;2023-04-24T19:14:31;6.43;;;5.50;;
9940;SDS011;5009;50.656;7.188;2023-04-24T19:16:57;5.97;;;5.00;;
9940;SDS011;5009;50.656;7.188;2023-04-24T19:19:22;8.37;;;6.30;;
9940;SDS011;5009;50.656;7.188;2023-04-24T19:21:50;8.13;;;6.87;;
9940;SDS011;5009;50.656;7.188;2023-04-24T19:24:16;7.00;;;6.30;;
9940;SDS011;5009;50.656;7.188;2023-04-24T19:26:43;9.60;;;7.70;;